EDDSLPFR

Guest
Details From EDDS - Stuttgart
To LPFR - Faro
Flight Number -
Tags Generated
Created
Modified
Stats Distance 1,027 nm / 1,903 km
Max Altitude 0 ft / 0 m
Waypoints 6
Social Downloads 4
Likes 0
Share VATSIM

Download

Looking for another format? Having issues loading an existing format? Contact us
Advertisement - Login to hide

Notes

Generated

Route

EDDS BUSIL BAKRO NATPA VFA LPFR

ID Type Via Altitude Latitude Longitude Leg Dist Tot Dist Heading (true) Name
O EDDS APT - 0 ft / 0 m 48.68573˚ 9.20013˚ - 0 nm - -
BUSIL FIX - 0 ft / 0 m 46.29361˚ 4.72194˚ 231 nm 231 nm 233° / 230° -
BAKRO FIX - 0 ft / 0 m 43.23000˚ -0.13361˚ 276 nm 508 nm 230° / 227° -
NATPA FIX - 0 ft / 0 m 39.91889˚ -4.58639˚ 281 nm 790 nm 227° / 224° -
VFA VOR - 0 ft / 0 m 37.01352˚ -7.97501˚ 236 nm 1026 nm 223° / 221° FARO VOR-DME
O LPFR APT - 0 ft / 0 m 37.01729˚ -7.98609˚ 0 nm 1027 nm 293° / 293° -

Altitude Profile

Advertisement - Login to hide

Weather


0- 5 10 15 20 25 30 35+ Temperature / ° C

Clouds and Precipitation
Forecast for 2018-05-23 06:00 UTC. Updated 2 hours ago

Ground ~20,000 ft ~40,000 ft Winds

EDDS

Details ICAO EDDS (STR)
Name Stuttgart
Region Germany - Civil
Timezone Europe/Berlin (UTC+2.0)
Stats Elevation 1,273 ft / 388 m (AMSL)
Location 48.689876° 9.221962°
Runways 1
Magnetic Variation 2.578° E

METAR

EDDS 230720Z 29001KT 9999 FEW006 BKN075 15/14 Q1018 NOSIG

Decode

TAF

TAF TAF EDDS 230500Z 2306/2406 VRB03KT CAVOK BECMG 2309/2311 01005KT PROB30 TEMPO 2312/2318 TSRA SCT040CB BECMG 2319/2321 VRB03KT

Decode

Departure Runways

ID Width Length Bearing (true) Bearing (mag) Surface Threshold Offset Overrun Length
07 148 ft / 45 m 10,950 ft / 3,337 m 73.96° 71.38° Concrete 981 ft / 299 m 157 ft / 48 m
25 148 ft / 45 m 10,950 ft / 3,337 m 253.99° 251.41° Concrete 0 ft / 0 m 157 ft / 48 m

LPFR

Details ICAO LPFR (FAO)
Name Faro
Region Portugal
Timezone Europe/Lisbon (UTC+1.0)
Stats Elevation 24 ft / 7 m (AMSL)
Location 37.015336° -7.972327°
Runways 1
Magnetic Variation 1.883° W

METAR

LPFR 230700Z 33004KT 290V010 CAVOK 16/13 Q1015

Decode

TAF

TAF LPFR 230500Z 2306/2406 33005KT CAVOK BECMG 2309/2312 24008KT BECMG 2314/2317 27013KT 9999 FEW025 SCT040 PROB40 TEMPO 2314/2320 8000 SHRA BKN020 FEW030TCU

Decode

Destination Runways

ID Width Length Bearing (true) Bearing (mag) Surface Threshold Offset Overrun Length
10 148 ft / 45 m 8,148 ft / 2,484 m 100.08° 101.96° Asphalt 148 ft / 45 m 0 ft / 0 m
28 148 ft / 45 m 8,148 ft / 2,484 m 280.10° 281.98° Asphalt 148 ft / 45 m 0 ft / 0 m

Approach Navaids

Runway Type Ident Frequency Range Bearing (true) Bearing (mag) Slope Elevation
28 Localiser IIF 109.50 MHz 18 nm / 33 km 280.16° 282.05° - 24 ft / 7 m (AMSL)
28 Glidescope IIF 109.50 MHz 10 nm / 19 km 280.09° 281.97° 3.00° 24 ft / 7 m (AMSL)
28 DME IIF 109.50 MHz 18 nm / 33 km - - - 24 ft / 7 m (AMSL)

Popular Alternatives